Etusivu
METAR-TAF:

METAR-TAF

Lentoasemat :

Caracas, Venezuela

Leveyspiiri: 10-36N, Pituuspiiri: 066-59W, korkeus merenpinnasta: 43 m

Tämänhetkinen sää

Tämä raportti tehtiin 43 minuuttia sitten, kello 20.02 UTC
Tuuli 8 kn idästä/koillisesta
Lämpötila
Ilmanpaine 1013 hPa

METAR: SVMI 262002Z AUTO 06008KT NCD ///// Q1013

Aika: 16:45 (20:45 UTC)

Sääennuste

Tämä raportti tehtiin 4 tuntia ja 45 minuuttia sitten, kello 16.00 UTC
Ennuste voimassa 26. päivästä klo 12 UTC - 27. päivään klo 16 UTC
Tuuli 5 kn idästä
Näkyvyys 10 km tai enemmän
Muutamia pilviä 1600 ft:n korkeudessa
Tulossa
26. päivästä klo 16 UTC - 26. päivään klo 18 UTC
Tuuli 3 kn idästä
Näkyvyys 10 km tai enemmän

TAF: SVMI 261600Z 2612/2716 09005KT 9999 FEW016 TX30/18Z TN24/08Z BECMG 2616/2618 08003KT 9999 FEW16

Säähavainnot ja -ennusteet yli 4000 lentoasemalta (METAR- ja TAF-raportit).

Käytössä olevat sääasemat on merkitty karttaan keltaisilla ja punaisilla pisteillä.

Aseta hiiri pisteen päälle nähdäksesi sääaseman nimen.

Klikkaa sitten nähdäksesi säähavainnot ja -ennusteet.

Kartan vaihtaminen: klikkaa mustalla rastilla varustettuja vihreitä pisteitä, niin voit zoomata sisään; viivalla varustettua vihreää pistettä, niin voit zoomata ulos tai vihreitä nuolia, niin pääset viereisille kartoille.


METAR-TAF: